sensor_id;sensor_type;location;lat;lon;timestamp;P1;durP1;ratioP1;P2;durP2;ratioP2
8803;SDS011;4438;50.890;4.726;2023-02-01T00:00:54;13.97;;;7.90;;
8803;SDS011;4438;50.890;4.726;2023-02-01T00:03:20;16.20;;;7.00;;
8803;SDS011;4438;50.890;4.726;2023-02-01T00:05:54;14.97;;;6.83;;
8803;SDS011;4438;50.890;4.726;2023-02-01T00:08:20;17.07;;;6.50;;
8803;SDS011;4438;50.890;4.726;2023-02-01T00:10:46;13.87;;;5.73;;
8803;SDS011;4438;50.890;4.726;2023-02-01T00:13:13;12.40;;;6.50;;
8803;SDS011;4438;50.890;4.726;2023-02-01T00:15:39;11.33;;;5.87;;
8803;SDS011;4438;50.890;4.726;2023-02-01T00:18:05;13.57;;;6.10;;
8803;SDS011;4438;50.890;4.726;2023-02-01T00:20:31;13.97;;;6.07;;
8803;SDS011;4438;50.890;4.726;2023-02-01T00:22:57;17.00;;;6.10;;
8803;SDS011;4438;50.890;4.726;2023-02-01T00:25:23;14.47;;;6.33;;
8803;SDS011;4438;50.890;4.726;2023-02-01T00:27:49;14.27;;;5.83;;
8803;SDS011;4438;50.890;4.726;2023-02-01T00:30:16;14.33;;;5.47;;
8803;SDS011;4438;50.890;4.726;2023-02-01T00:32:42;13.73;;;5.47;;
8803;SDS011;4438;50.890;4.726;2023-02-01T00:35:08;10.60;;;5.10;;
8803;SDS011;4438;50.890;4.726;2023-02-01T00:37:35;13.33;;;5.63;;
8803;SDS011;4438;50.890;4.726;2023-02-01T00:40:01;11.30;;;5.10;;
8803;SDS011;4438;50.890;4.726;2023-02-01T00:42:27;18.07;;;6.73;;
8803;SDS011;4438;50.890;4.726;2023-02-01T00:44:53;16.20;;;6.43;;
8803;SDS011;4438;50.890;4.726;2023-02-01T00:47:19;12.37;;;5.93;;
8803;SDS011;4438;50.890;4.726;2023-02-01T00:49:45;15.90;;;7.83;;
8803;SDS011;4438;50.890;4.726;2023-02-01T00:52:11;15.80;;;6.83;;
8803;SDS011;4438;50.890;4.726;2023-02-01T00:54:37;13.50;;;7.33;;
8803;SDS011;4438;50.890;4.726;2023-02-01T00:57:03;13.17;;;6.83;;
8803;SDS011;4438;50.890;4.726;2023-02-01T00:59:29;18.23;;;8.27;;
8803;SDS011;4438;50.890;4.726;2023-02-01T01:01:55;19.37;;;7.70;;
8803;SDS011;4438;50.890;4.726;2023-02-01T01:04:22;19.43;;;8.40;;
8803;SDS011;4438;50.890;4.726;2023-02-01T01:06:48;17.03;;;7.53;;
8803;SDS011;4438;50.890;4.726;2023-02-01T01:09:14;16.07;;;7.77;;
8803;SDS011;4438;50.890;4.726;2023-02-01T01:11:40;19.40;;;7.67;;
8803;SDS011;4438;50.890;4.726;2023-02-01T01:14:06;16.17;;;7.80;;
8803;SDS011;4438;50.890;4.726;2023-02-01T01:16:33;14.27;;;6.63;;
8803;SDS011;4438;50.890;4.726;2023-02-01T01:18:59;17.03;;;7.13;;
8803;SDS011;4438;50.890;4.726;2023-02-01T01:21:25;14.53;;;6.73;;
8803;SDS011;4438;50.890;4.726;2023-02-01T01:23:52;16.30;;;6.30;;
8803;SDS011;4438;50.890;4.726;2023-02-01T01:26:19;13.57;;;5.90;;
8803;SDS011;4438;50.890;4.726;2023-02-01T01:28:46;14.00;;;5.57;;
8803;SDS011;4438;50.890;4.726;2023-02-01T01:31:12;11.97;;;6.13;;
8803;SDS011;4438;50.890;4.726;2023-02-01T01:33:39;15.73;;;5.50;;
8803;SDS011;4438;50.890;4.726;2023-02-01T01:36:05;13.60;;;6.03;;
8803;SDS011;4438;50.890;4.726;2023-02-01T01:38:32;18.53;;;6.00;;
8803;SDS011;4438;50.890;4.726;2023-02-01T01:40:58;16.67;;;6.60;;
8803;SDS011;4438;50.890;4.726;2023-02-01T01:43:24;14.30;;;5.33;;
8803;SDS011;4438;50.890;4.726;2023-02-01T01:45:50;16.67;;;5.77;;
8803;SDS011;4438;50.890;4.726;2023-02-01T01:48:22;15.00;;;5.90;;
8803;SDS011;4438;50.890;4.726;2023-02-01T01:50:52;15.13;;;5.73;;
8803;SDS011;4438;50.890;4.726;2023-02-01T01:53:20;12.90;;;5.70;;
8803;SDS011;4438;50.890;4.726;2023-02-01T01:55:47;18.17;;;6.40;;
8803;SDS011;4438;50.890;4.726;2023-02-01T01:58:16;13.33;;;6.30;;
8803;SDS011;4438;50.890;4.726;2023-02-01T02:00:43;14.17;;;6.13;;
8803;SDS011;4438;50.890;4.726;2023-02-01T02:03:24;18.33;;;5.90;;
8803;SDS011;4438;50.890;4.726;2023-02-01T02:05:51;15.57;;;5.67;;
8803;SDS011;4438;50.890;4.726;2023-02-01T02:08:19;14.57;;;4.93;;
8803;SDS011;4438;50.890;4.726;2023-02-01T02:10:48;14.80;;;5.03;;
8803;SDS011;4438;50.890;4.726;2023-02-01T02:13:32;13.87;;;5.23;;
8803;SDS011;4438;50.890;4.726;2023-02-01T02:16:13;14.73;;;5.50;;
8803;SDS011;4438;50.890;4.726;2023-02-01T02:27:00;10.77;;;4.40;;
8803;SDS011;4438;50.890;4.726;2023-02-01T02:37:42;18.27;;;5.07;;
8803;SDS011;4438;50.890;4.726;2023-02-01T02:43:12;13.67;;;4.60;;
8803;SDS011;4438;50.890;4.726;2023-02-01T02:46:01;12.23;;;3.90;;
8803;SDS011;4438;50.890;4.726;2023-02-01T02:51:18;12.40;;;4.77;;
8803;SDS011;4438;50.890;4.726;2023-02-01T02:54:06;11.10;;;4.70;;
8803;SDS011;4438;50.890;4.726;2023-02-01T02:56:52;10.77;;;4.07;;
8803;SDS011;4438;50.890;4.726;2023-02-01T02:59:38;11.27;;;4.30;;
8803;SDS011;4438;50.890;4.726;2023-02-01T03:02:25;14.17;;;4.37;;
8803;SDS011;4438;50.890;4.726;2023-02-01T03:05:10;14.93;;;4.50;;
8803;SDS011;4438;50.890;4.726;2023-02-01T03:07:57;12.27;;;4.30;;
8803;SDS011;4438;50.890;4.726;2023-02-01T03:10:28;12.30;;;3.97;;
8803;SDS011;4438;50.890;4.726;2023-02-01T03:12:59;14.17;;;4.37;;
8803;SDS011;4438;50.890;4.726;2023-02-01T03:15:41;12.40;;;4.13;;
8803;SDS011;4438;50.890;4.726;2023-02-01T03:18:17;11.97;;;4.10;;
8803;SDS011;4438;50.890;4.726;2023-02-01T03:20:44;13.73;;;4.10;;
8803;SDS011;4438;50.890;4.726;2023-02-01T03:23:12;12.93;;;4.30;;
8803;SDS011;4438;50.890;4.726;2023-02-01T03:25:39;14.70;;;4.60;;
8803;SDS011;4438;50.890;4.726;2023-02-01T03:28:07;14.27;;;3.97;;
8803;SDS011;4438;50.890;4.726;2023-02-01T03:30:43;14.03;;;4.23;;
8803;SDS011;4438;50.890;4.726;2023-02-01T03:33:11;11.33;;;3.97;;
8803;SDS011;4438;50.890;4.726;2023-02-01T03:36:00;11.70;;;3.97;;
8803;SDS011;4438;50.890;4.726;2023-02-01T03:38:38;14.23;;;3.63;;
8803;SDS011;4438;50.890;4.726;2023-02-01T03:41:17;14.60;;;4.43;;
8803;SDS011;4438;50.890;4.726;2023-02-01T03:46:18;15.73;;;4.30;;
8803;SDS011;4438;50.890;4.726;2023-02-01T03:48:46;15.90;;;4.30;;
8803;SDS011;4438;50.890;4.726;2023-02-01T03:51:13;13.57;;;4.50;;
8803;SDS011;4438;50.890;4.726;2023-02-01T03:53:40;26.57;;;4.33;;
8803;SDS011;4438;50.890;4.726;2023-02-01T03:56:06;11.33;;;3.80;;
8803;SDS011;4438;50.890;4.726;2023-02-01T03:58:34;16.30;;;4.33;;
8803;SDS011;4438;50.890;4.726;2023-02-01T04:01:00;13.63;;;4.13;;
8803;SDS011;4438;50.890;4.726;2023-02-01T04:03:27;15.63;;;4.50;;
8803;SDS011;4438;50.890;4.726;2023-02-01T04:05:53;13.33;;;4.47;;
8803;SDS011;4438;50.890;4.726;2023-02-01T04:08:20;12.80;;;4.20;;
8803;SDS011;4438;50.890;4.726;2023-02-01T04:10:46;14.63;;;4.30;;
8803;SDS011;4438;50.890;4.726;2023-02-01T04:13:13;14.23;;;4.43;;
8803;SDS011;4438;50.890;4.726;2023-02-01T04:15:39;14.37;;;4.53;;
8803;SDS011;4438;50.890;4.726;2023-02-01T04:18:05;11.63;;;4.17;;
8803;SDS011;4438;50.890;4.726;2023-02-01T04:20:31;16.00;;;4.37;;
8803;SDS011;4438;50.890;4.726;2023-02-01T04:22:57;13.40;;;4.50;;
8803;SDS011;4438;50.890;4.726;2023-02-01T04:25:23;11.03;;;3.80;;
8803;SDS011;4438;50.890;4.726;2023-02-01T04:27:49;14.93;;;4.20;;
8803;SDS011;4438;50.890;4.726;2023-02-01T04:30:15;15.00;;;4.40;;
8803;SDS011;4438;50.890;4.726;2023-02-01T04:32:42;12.93;;;4.87;;
8803;SDS011;4438;50.890;4.726;2023-02-01T04:35:08;14.90;;;4.63;;
8803;SDS011;4438;50.890;4.726;2023-02-01T04:37:34;18.70;;;4.30;;
8803;SDS011;4438;50.890;4.726;2023-02-01T04:40:01;11.87;;;4.10;;
8803;SDS011;4438;50.890;4.726;2023-02-01T04:42:28;17.03;;;4.57;;
8803;SDS011;4438;50.890;4.726;2023-02-01T04:44:54;17.90;;;4.30;;
8803;SDS011;4438;50.890;4.726;2023-02-01T04:47:20;11.63;;;4.37;;
8803;SDS011;4438;50.890;4.726;2023-02-01T04:49:47;12.20;;;4.33;;
8803;SDS011;4438;50.890;4.726;2023-02-01T04:52:13;13.67;;;4.33;;
8803;SDS011;4438;50.890;4.726;2023-02-01T04:54:39;13.33;;;4.43;;
8803;SDS011;4438;50.890;4.726;2023-02-01T04:57:05;14.87;;;4.83;;
8803;SDS011;4438;50.890;4.726;2023-02-01T04:59:31;15.73;;;5.03;;
8803;SDS011;4438;50.890;4.726;2023-02-01T05:01:57;15.93;;;4.83;;
8803;SDS011;4438;50.890;4.726;2023-02-01T05:04:23;14.63;;;4.43;;
8803;SDS011;4438;50.890;4.726;2023-02-01T05:06:49;14.70;;;4.40;;
8803;SDS011;4438;50.890;4.726;2023-02-01T05:09:15;14.60;;;4.20;;
8803;SDS011;4438;50.890;4.726;2023-02-01T05:11:41;14.60;;;4.50;;
8803;SDS011;4438;50.890;4.726;2023-02-01T05:14:26;15.40;;;5.00;;
8803;SDS011;4438;50.890;4.726;2023-02-01T05:16:52;11.63;;;3.63;;
8803;SDS011;4438;50.890;4.726;2023-02-01T05:19:18;16.10;;;4.83;;
8803;SDS011;4438;50.890;4.726;2023-02-01T05:21:44;13.60;;;4.43;;
8803;SDS011;4438;50.890;4.726;2023-02-01T05:24:11;14.13;;;4.23;;
8803;SDS011;4438;50.890;4.726;2023-02-01T05:26:45;13.83;;;4.60;;
8803;SDS011;4438;50.890;4.726;2023-02-01T05:29:11;15.73;;;4.47;;
8803;SDS011;4438;50.890;4.726;2023-02-01T05:31:37;13.30;;;3.70;;
8803;SDS011;4438;50.890;4.726;2023-02-01T05:34:05;12.90;;;4.13;;
8803;SDS011;4438;50.890;4.726;2023-02-01T05:36:31;16.50;;;5.10;;
8803;SDS011;4438;50.890;4.726;2023-02-01T05:38:57;13.17;;;4.27;;
8803;SDS011;4438;50.890;4.726;2023-02-01T05:41:23;12.63;;;4.13;;
8803;SDS011;4438;50.890;4.726;2023-02-01T05:43:50;17.07;;;5.30;;
8803;SDS011;4438;50.890;4.726;2023-02-01T05:46:16;17.17;;;4.37;;
8803;SDS011;4438;50.890;4.726;2023-02-01T05:48:42;13.07;;;4.93;;
8803;SDS011;4438;50.890;4.726;2023-02-01T05:51:08;13.80;;;4.70;;
8803;SDS011;4438;50.890;4.726;2023-02-01T05:53:35;15.80;;;4.67;;
8803;SDS011;4438;50.890;4.726;2023-02-01T05:56:01;15.13;;;4.60;;
8803;SDS011;4438;50.890;4.726;2023-02-01T05:58:27;14.20;;;3.90;;
8803;SDS011;4438;50.890;4.726;2023-02-01T06:00:53;16.03;;;4.57;;
8803;SDS011;4438;50.890;4.726;2023-02-01T06:03:19;14.13;;;4.33;;
8803;SDS011;4438;50.890;4.726;2023-02-01T06:05:46;12.67;;;4.33;;
8803;SDS011;4438;50.890;4.726;2023-02-01T06:08:12;13.37;;;4.30;;
8803;SDS011;4438;50.890;4.726;2023-02-01T06:10:38;13.67;;;4.47;;
8803;SDS011;4438;50.890;4.726;2023-02-01T06:13:05;14.20;;;4.43;;
8803;SDS011;4438;50.890;4.726;2023-02-01T06:15:31;14.43;;;4.53;;
8803;SDS011;4438;50.890;4.726;2023-02-01T06:17:57;16.43;;;4.70;;
8803;SDS011;4438;50.890;4.726;2023-02-01T06:20:23;14.80;;;4.90;;
8803;SDS011;4438;50.890;4.726;2023-02-01T06:22:49;16.63;;;4.23;;
8803;SDS011;4438;50.890;4.726;2023-02-01T06:25:17;16.93;;;4.50;;
8803;SDS011;4438;50.890;4.726;2023-02-01T06:27:44;15.37;;;4.03;;
8803;SDS011;4438;50.890;4.726;2023-02-01T06:30:10;15.93;;;4.10;;
8803;SDS011;4438;50.890;4.726;2023-02-01T06:32:38;17.50;;;4.30;;
8803;SDS011;4438;50.890;4.726;2023-02-01T06:35:06;13.97;;;4.27;;
8803;SDS011;4438;50.890;4.726;2023-02-01T06:37:33;12.60;;;4.13;;
8803;SDS011;4438;50.890;4.726;2023-02-01T06:39:59;16.40;;;5.07;;
8803;SDS011;4438;50.890;4.726;2023-02-01T06:42:25;15.20;;;4.40;;
8803;SDS011;4438;50.890;4.726;2023-02-01T06:44:51;19.00;;;4.90;;
8803;SDS011;4438;50.890;4.726;2023-02-01T06:47:17;14.73;;;4.10;;
8803;SDS011;4438;50.890;4.726;2023-02-01T06:49:43;14.57;;;5.13;;
8803;SDS011;4438;50.890;4.726;2023-02-01T06:52:09;14.40;;;4.27;;
8803;SDS011;4438;50.890;4.726;2023-02-01T06:54:35;15.17;;;4.60;;
8803;SDS011;4438;50.890;4.726;2023-02-01T06:57:02;17.13;;;4.77;;
8803;SDS011;4438;50.890;4.726;2023-02-01T06:59:29;17.70;;;4.53;;
8803;SDS011;4438;50.890;4.726;2023-02-01T07:01:55;16.60;;;4.90;;
8803;SDS011;4438;50.890;4.726;2023-02-01T07:04:21;16.47;;;4.30;;
8803;SDS011;4438;50.890;4.726;2023-02-01T07:06:47;19.13;;;4.53;;
8803;SDS011;4438;50.890;4.726;2023-02-01T07:09:13;17.73;;;4.73;;
8803;SDS011;4438;50.890;4.726;2023-02-01T07:11:39;16.23;;;4.13;;
8803;SDS011;4438;50.890;4.726;2023-02-01T07:14:12;14.77;;;4.00;;
8803;SDS011;4438;50.890;4.726;2023-02-01T07:16:38;15.30;;;4.33;;
8803;SDS011;4438;50.890;4.726;2023-02-01T07:19:04;11.90;;;4.17;;
8803;SDS011;4438;50.890;4.726;2023-02-01T07:21:30;17.27;;;5.00;;
8803;SDS011;4438;50.890;4.726;2023-02-01T07:23:57;12.03;;;4.40;;
8803;SDS011;4438;50.890;4.726;2023-02-01T07:26:23;18.83;;;4.83;;
8803;SDS011;4438;50.890;4.726;2023-02-01T07:28:50;12.97;;;4.33;;
8803;SDS011;4438;50.890;4.726;2023-02-01T07:31:17;19.00;;;4.77;;
8803;SDS011;4438;50.890;4.726;2023-02-01T07:33:45;13.43;;;4.80;;
8803;SDS011;4438;50.890;4.726;2023-02-01T07:36:12;17.63;;;5.37;;
8803;SDS011;4438;50.890;4.726;2023-02-01T07:38:39;17.30;;;4.63;;
8803;SDS011;4438;50.890;4.726;2023-02-01T07:41:05;12.77;;;4.37;;
8803;SDS011;4438;50.890;4.726;2023-02-01T07:43:33;16.17;;;4.50;;
8803;SDS011;4438;50.890;4.726;2023-02-01T07:45:59;11.93;;;4.17;;
8803;SDS011;4438;50.890;4.726;2023-02-01T07:48:26;13.10;;;4.73;;
8803;SDS011;4438;50.890;4.726;2023-02-01T07:50:59;18.07;;;4.30;;
8803;SDS011;4438;50.890;4.726;2023-02-01T07:53:26;17.07;;;4.77;;
8803;SDS011;4438;50.890;4.726;2023-02-01T07:55:52;16.13;;;4.97;;
8803;SDS011;4438;50.890;4.726;2023-02-01T07:58:18;15.00;;;4.80;;
8803;SDS011;4438;50.890;4.726;2023-02-01T08:00:44;17.57;;;4.17;;
8803;SDS011;4438;50.890;4.726;2023-02-01T08:03:29;17.13;;;4.17;;
8803;SDS011;4438;50.890;4.726;2023-02-01T08:05:55;15.80;;;4.43;;
8803;SDS011;4438;50.890;4.726;2023-02-01T08:08:21;15.20;;;4.43;;
8803;SDS011;4438;50.890;4.726;2023-02-01T08:10:47;13.97;;;4.70;;
8803;SDS011;4438;50.890;4.726;2023-02-01T08:13:13;15.30;;;4.87;;
8803;SDS011;4438;50.890;4.726;2023-02-01T08:15:40;16.83;;;4.70;;
8803;SDS011;4438;50.890;4.726;2023-02-01T08:18:06;13.87;;;5.20;;
8803;SDS011;4438;50.890;4.726;2023-02-01T08:20:32;15.03;;;4.83;;
8803;SDS011;4438;50.890;4.726;2023-02-01T08:23:01;16.20;;;4.53;;
8803;SDS011;4438;50.890;4.726;2023-02-01T08:25:27;17.07;;;4.87;;
8803;SDS011;4438;50.890;4.726;2023-02-01T08:27:53;23.03;;;5.97;;
8803;SDS011;4438;50.890;4.726;2023-02-01T08:30:20;16.70;;;5.40;;
8803;SDS011;4438;50.890;4.726;2023-02-01T08:32:47;15.93;;;5.30;;
8803;SDS011;4438;50.890;4.726;2023-02-01T08:35:13;14.80;;;4.30;;
8803;SDS011;4438;50.890;4.726;2023-02-01T08:37:39;17.10;;;5.63;;
8803;SDS011;4438;50.890;4.726;2023-02-01T08:40:05;13.70;;;4.63;;
8803;SDS011;4438;50.890;4.726;2023-02-01T08:42:31;21.10;;;4.80;;
8803;SDS011;4438;50.890;4.726;2023-02-01T08:45:16;16.50;;;4.90;;
8803;SDS011;4438;50.890;4.726;2023-02-01T08:47:43;17.67;;;4.80;;
8803;SDS011;4438;50.890;4.726;2023-02-01T08:50:11;15.53;;;4.97;;
8803;SDS011;4438;50.890;4.726;2023-02-01T08:52:37;16.23;;;4.77;;
8803;SDS011;4438;50.890;4.726;2023-02-01T08:55:04;14.53;;;4.77;;
8803;SDS011;4438;50.890;4.726;2023-02-01T08:57:30;19.40;;;5.47;;
8803;SDS011;4438;50.890;4.726;2023-02-01T08:59:57;15.53;;;4.70;;
8803;SDS011;4438;50.890;4.726;2023-02-01T09:02:23;18.13;;;5.33;;
8803;SDS011;4438;50.890;4.726;2023-02-01T09:04:49;14.93;;;4.80;;
8803;SDS011;4438;50.890;4.726;2023-02-01T09:07:15;20.03;;;4.67;;
8803;SDS011;4438;50.890;4.726;2023-02-01T09:09:43;17.03;;;5.67;;
8803;SDS011;4438;50.890;4.726;2023-02-01T09:12:09;19.10;;;5.10;;
8803;SDS011;4438;50.890;4.726;2023-02-01T09:14:36;15.57;;;4.60;;
8803;SDS011;4438;50.890;4.726;2023-02-01T09:17:02;16.93;;;5.57;;
8803;SDS011;4438;50.890;4.726;2023-02-01T09:19:30;13.83;;;5.20;;
8803;SDS011;4438;50.890;4.726;2023-02-01T09:21:56;13.30;;;4.20;;
8803;SDS011;4438;50.890;4.726;2023-02-01T09:24:22;19.37;;;4.90;;
8803;SDS011;4438;50.890;4.726;2023-02-01T09:26:48;15.63;;;4.30;;
8803;SDS011;4438;50.890;4.726;2023-02-01T09:29:14;15.40;;;4.70;;
8803;SDS011;4438;50.890;4.726;2023-02-01T09:31:41;15.03;;;5.17;;
8803;SDS011;4438;50.890;4.726;2023-02-01T09:34:07;17.77;;;4.97;;
8803;SDS011;4438;50.890;4.726;2023-02-01T09:36:34;18.43;;;5.00;;
8803;SDS011;4438;50.890;4.726;2023-02-01T09:39:00;14.00;;;4.33;;
8803;SDS011;4438;50.890;4.726;2023-02-01T09:43:59;19.13;;;4.70;;
8803;SDS011;4438;50.890;4.726;2023-02-01T09:46:28;11.83;;;4.70;;
8803;SDS011;4438;50.890;4.726;2023-02-01T09:48:56;12.87;;;4.57;;
8803;SDS011;4438;50.890;4.726;2023-02-01T09:51:25;12.47;;;4.77;;
8803;SDS011;4438;50.890;4.726;2023-02-01T09:54:13;11.37;;;4.93;;
8803;SDS011;4438;50.890;4.726;2023-02-01T09:56:42;15.03;;;5.00;;
8803;SDS011;4438;50.890;4.726;2023-02-01T10:01:42;15.00;;;5.20;;
8803;SDS011;4438;50.890;4.726;2023-02-01T10:04:09;12.80;;;4.53;;
8803;SDS011;4438;50.890;4.726;2023-02-01T10:11:39;14.87;;;4.20;;
8803;SDS011;4438;50.890;4.726;2023-02-01T10:16:42;14.73;;;4.67;;
8803;SDS011;4438;50.890;4.726;2023-02-01T10:19:35;13.83;;;4.73;;
8803;SDS011;4438;50.890;4.726;2023-02-01T10:22:07;13.40;;;3.90;;
8803;SDS011;4438;50.890;4.726;2023-02-01T10:24:39;14.50;;;4.90;;
8803;SDS011;4438;50.890;4.726;2023-02-01T10:27:09;13.03;;;3.90;;
8803;SDS011;4438;50.890;4.726;2023-02-01T10:29:39;15.40;;;4.80;;
8803;SDS011;4438;50.890;4.726;2023-02-01T10:32:13;16.03;;;4.10;;
8803;SDS011;4438;50.890;4.726;2023-02-01T10:34:39;13.00;;;4.23;;
8803;SDS011;4438;50.890;4.726;2023-02-01T10:37:20;11.67;;;3.83;;
8803;SDS011;4438;50.890;4.726;2023-02-01T10:39:49;11.77;;;4.23;;
8803;SDS011;4438;50.890;4.726;2023-02-01T10:42:20;12.03;;;4.13;;
8803;SDS011;4438;50.890;4.726;2023-02-01T10:44:47;9.20;;;4.07;;
8803;SDS011;4438;50.890;4.726;2023-02-01T10:47:14;11.93;;;3.60;;
8803;SDS011;4438;50.890;4.726;2023-02-01T10:49:45;14.40;;;4.10;;
8803;SDS011;4438;50.890;4.726;2023-02-01T10:52:17;10.83;;;3.87;;
8803;SDS011;4438;50.890;4.726;2023-02-01T10:54:45;10.07;;;3.87;;
8803;SDS011;4438;50.890;4.726;2023-02-01T10:57:19;12.80;;;4.37;;
8803;SDS011;4438;50.890;4.726;2023-02-01T10:59:46;15.60;;;4.40;;
8803;SDS011;4438;50.890;4.726;2023-02-01T11:02:32;9.83;;;3.37;;
8803;SDS011;4438;50.890;4.726;2023-02-01T11:05:02;12.40;;;3.83;;
8803;SDS011;4438;50.890;4.726;2023-02-01T11:07:29;10.03;;;3.80;;
8803;SDS011;4438;50.890;4.726;2023-02-01T11:09:55;13.27;;;3.77;;
8803;SDS011;4438;50.890;4.726;2023-02-01T11:14:54;13.97;;;4.10;;
8803;SDS011;4438;50.890;4.726;2023-02-01T11:17:26;10.93;;;3.80;;
8803;SDS011;4438;50.890;4.726;2023-02-01T11:20:00;10.63;;;3.73;;
8803;SDS011;4438;50.890;4.726;2023-02-01T11:22:27;10.97;;;3.90;;
8803;SDS011;4438;50.890;4.726;2023-02-01T11:24:54;10.30;;;4.03;;
8803;SDS011;4438;50.890;4.726;2023-02-01T11:27:21;10.90;;;3.67;;
8803;SDS011;4438;50.890;4.726;2023-02-01T11:29:52;12.63;;;3.60;;
8803;SDS011;4438;50.890;4.726;2023-02-01T11:32:22;9.53;;;3.57;;
8803;SDS011;4438;50.890;4.726;2023-02-01T11:34:50;10.33;;;3.43;;
8803;SDS011;4438;50.890;4.726;2023-02-01T11:39:43;11.63;;;3.83;;
8803;SDS011;4438;50.890;4.726;2023-02-01T11:42:18;8.83;;;3.33;;
8803;SDS011;4438;50.890;4.726;2023-02-01T11:44:46;9.73;;;3.10;;
8803;SDS011;4438;50.890;4.726;2023-02-01T11:49:45;9.43;;;3.10;;
8803;SDS011;4438;50.890;4.726;2023-02-01T11:52:22;9.10;;;3.50;;
8803;SDS011;4438;50.890;4.726;2023-02-01T12:18:39;9.27;;;3.10;;
8803;SDS011;4438;50.890;4.726;2023-02-01T12:29:26;9.87;;;3.53;;
8803;SDS011;4438;50.890;4.726;2023-02-01T12:37:09;8.03;;;2.83;;
8803;SDS011;4438;50.890;4.726;2023-02-01T12:39:43;9.20;;;2.97;;
8803;SDS011;4438;50.890;4.726;2023-02-01T12:44:51;5.70;;;2.47;;
8803;SDS011;4438;50.890;4.726;2023-02-01T12:47:23;11.07;;;2.97;;
8803;SDS011;4438;50.890;4.726;2023-02-01T12:50:14;11.53;;;2.93;;
8803;SDS011;4438;50.890;4.726;2023-02-01T12:52:47;9.53;;;2.50;;
8803;SDS011;4438;50.890;4.726;2023-02-01T12:57:45;7.27;;;2.80;;
8803;SDS011;4438;50.890;4.726;2023-02-01T13:00:32;7.87;;;2.70;;
8803;SDS011;4438;50.890;4.726;2023-02-01T13:03:15;7.40;;;2.77;;
8803;SDS011;4438;50.890;4.726;2023-02-01T13:05:53;7.53;;;2.43;;
8803;SDS011;4438;50.890;4.726;2023-02-01T13:08:25;7.00;;;2.87;;
8803;SDS011;4438;50.890;4.726;2023-02-01T13:11:00;8.53;;;2.77;;
8803;SDS011;4438;50.890;4.726;2023-02-01T13:13:31;7.03;;;2.40;;
8803;SDS011;4438;50.890;4.726;2023-02-01T13:18:25;7.13;;;2.87;;
8803;SDS011;4438;50.890;4.726;2023-02-01T13:23:27;8.67;;;2.70;;
8803;SDS011;4438;50.890;4.726;2023-02-01T13:25:54;6.40;;;2.77;;
8803;SDS011;4438;50.890;4.726;2023-02-01T13:28:28;9.37;;;3.03;;
8803;SDS011;4438;50.890;4.726;2023-02-01T13:43:30;9.87;;;2.67;;
8803;SDS011;4438;50.890;4.726;2023-02-01T13:46:02;7.73;;;2.80;;
8803;SDS011;4438;50.890;4.726;2023-02-01T13:48:39;7.47;;;2.53;;
8803;SDS011;4438;50.890;4.726;2023-02-01T13:51:06;10.90;;;2.67;;
8803;SDS011;4438;50.890;4.726;2023-02-01T13:53:33;9.13;;;3.07;;
8803;SDS011;4438;50.890;4.726;2023-02-01T13:56:03;7.83;;;2.73;;
8803;SDS011;4438;50.890;4.726;2023-02-01T13:58:36;5.17;;;2.53;;
8803;SDS011;4438;50.890;4.726;2023-02-01T14:01:36;6.87;;;2.67;;
8803;SDS011;4438;50.890;4.726;2023-02-01T14:03:58;9.67;;;2.90;;
8803;SDS011;4438;50.890;4.726;2023-02-01T14:11:39;9.20;;;2.90;;
8803;SDS011;4438;50.890;4.726;2023-02-01T14:14:07;7.93;;;2.97;;
8803;SDS011;4438;50.890;4.726;2023-02-01T14:19:20;6.13;;;2.37;;
8803;SDS011;4438;50.890;4.726;2023-02-01T14:21:47;7.80;;;2.67;;
8803;SDS011;4438;50.890;4.726;2023-02-01T14:26:42;10.20;;;3.23;;
8803;SDS011;4438;50.890;4.726;2023-02-01T14:31:46;8.23;;;2.83;;
8803;SDS011;4438;50.890;4.726;2023-02-01T14:34:35;8.43;;;2.97;;
8803;SDS011;4438;50.890;4.726;2023-02-01T14:37:04;6.93;;;2.57;;
8803;SDS011;4438;50.890;4.726;2023-02-01T14:42:05;10.17;;;2.97;;
8803;SDS011;4438;50.890;4.726;2023-02-01T14:44:33;7.47;;;2.70;;
8803;SDS011;4438;50.890;4.726;2023-02-01T14:52:14;8.83;;;2.90;;
8803;SDS011;4438;50.890;4.726;2023-02-01T14:54:41;9.10;;;3.00;;
8803;SDS011;4438;50.890;4.726;2023-02-01T14:57:14;7.87;;;3.00;;
8803;SDS011;4438;50.890;4.726;2023-02-01T14:59:42;12.70;;;3.37;;
8803;SDS011;4438;50.890;4.726;2023-02-01T15:02:17;7.93;;;3.00;;
8803;SDS011;4438;50.890;4.726;2023-02-01T15:04:44;6.20;;;3.17;;
8803;SDS011;4438;50.890;4.726;2023-02-01T15:07:11;8.17;;;2.90;;
8803;SDS011;4438;50.890;4.726;2023-02-01T15:09:42;6.30;;;3.03;;
8803;SDS011;4438;50.890;4.726;2023-02-01T15:14:43;11.10;;;4.20;;
8803;SDS011;4438;50.890;4.726;2023-02-01T15:20:11;12.67;;;3.53;;
8803;SDS011;4438;50.890;4.726;2023-02-01T15:22:35;8.70;;;3.00;;
8803;SDS011;4438;50.890;4.726;2023-02-01T15:25:02;8.77;;;2.97;;
8803;SDS011;4438;50.890;4.726;2023-02-01T15:27:28;6.93;;;3.37;;
8803;SDS011;4438;50.890;4.726;2023-02-01T15:30:04;9.13;;;3.33;;
8803;SDS011;4438;50.890;4.726;2023-02-01T15:32:39;9.03;;;3.10;;
8803;SDS011;4438;50.890;4.726;2023-02-01T15:35:30;9.37;;;3.50;;
8803;SDS011;4438;50.890;4.726;2023-02-01T15:37:52;11.73;;;3.50;;
8803;SDS011;4438;50.890;4.726;2023-02-01T15:40:19;9.23;;;3.23;;
8803;SDS011;4438;50.890;4.726;2023-02-01T15:42:57;8.93;;;3.30;;
8803;SDS011;4438;50.890;4.726;2023-02-01T15:45:27;10.57;;;3.40;;
8803;SDS011;4438;50.890;4.726;2023-02-01T15:47:54;9.50;;;3.47;;
8803;SDS011;4438;50.890;4.726;2023-02-01T15:50:21;8.67;;;3.30;;
8803;SDS011;4438;50.890;4.726;2023-02-01T15:52:48;8.47;;;3.70;;
8803;SDS011;4438;50.890;4.726;2023-02-01T15:55:19;11.67;;;4.07;;
8803;SDS011;4438;50.890;4.726;2023-02-01T15:57:47;12.50;;;4.37;;
8803;SDS011;4438;50.890;4.726;2023-02-01T16:00:34;12.43;;;4.00;;
8803;SDS011;4438;50.890;4.726;2023-02-01T16:03:20;10.60;;;3.73;;
8803;SDS011;4438;50.890;4.726;2023-02-01T16:05:55;10.10;;;3.53;;
8803;SDS011;4438;50.890;4.726;2023-02-01T16:08:23;10.10;;;3.33;;
8803;SDS011;4438;50.890;4.726;2023-02-01T16:10:51;10.23;;;3.50;;
8803;SDS011;4438;50.890;4.726;2023-02-01T16:13:17;12.10;;;4.00;;
8803;SDS011;4438;50.890;4.726;2023-02-01T16:15:45;11.37;;;3.43;;
8803;SDS011;4438;50.890;4.726;2023-02-01T16:18:11;8.77;;;3.20;;
8803;SDS011;4438;50.890;4.726;2023-02-01T16:20:38;10.80;;;3.63;;
8803;SDS011;4438;50.890;4.726;2023-02-01T16:23:05;10.80;;;4.10;;
8803;SDS011;4438;50.890;4.726;2023-02-01T16:25:31;9.37;;;3.40;;
8803;SDS011;4438;50.890;4.726;2023-02-01T16:27:58;10.00;;;3.50;;
8803;SDS011;4438;50.890;4.726;2023-02-01T16:30:24;8.13;;;3.37;;
8803;SDS011;4438;50.890;4.726;2023-02-01T16:32:57;10.87;;;3.83;;
8803;SDS011;4438;50.890;4.726;2023-02-01T16:35:31;13.07;;;4.13;;
8803;SDS011;4438;50.890;4.726;2023-02-01T16:38:01;11.23;;;4.03;;
8803;SDS011;4438;50.890;4.726;2023-02-01T16:40:27;9.53;;;3.47;;
8803;SDS011;4438;50.890;4.726;2023-02-01T16:42:53;9.30;;;3.80;;
8803;SDS011;4438;50.890;4.726;2023-02-01T16:45:20;13.43;;;4.23;;
8803;SDS011;4438;50.890;4.726;2023-02-01T16:47:50;9.70;;;3.50;;
8803;SDS011;4438;50.890;4.726;2023-02-01T16:50:18;9.80;;;3.73;;
8803;SDS011;4438;50.890;4.726;2023-02-01T16:52:44;11.50;;;3.70;;
8803;SDS011;4438;50.890;4.726;2023-02-01T16:55:12;10.60;;;4.00;;
8803;SDS011;4438;50.890;4.726;2023-02-01T16:57:39;13.30;;;5.10;;
8803;SDS011;4438;50.890;4.726;2023-02-01T17:00:05;12.30;;;3.80;;
8803;SDS011;4438;50.890;4.726;2023-02-01T17:02:32;12.80;;;3.97;;
8803;SDS011;4438;50.890;4.726;2023-02-01T17:04:58;10.13;;;4.00;;
8803;SDS011;4438;50.890;4.726;2023-02-01T17:07:24;11.00;;;3.50;;
8803;SDS011;4438;50.890;4.726;2023-02-01T17:09:51;10.37;;;3.33;;
8803;SDS011;4438;50.890;4.726;2023-02-01T17:12:27;11.93;;;4.00;;
8803;SDS011;4438;50.890;4.726;2023-02-01T17:14:55;12.37;;;4.03;;
8803;SDS011;4438;50.890;4.726;2023-02-01T17:17:21;11.33;;;3.70;;
8803;SDS011;4438;50.890;4.726;2023-02-01T17:19:48;10.70;;;4.07;;
8803;SDS011;4438;50.890;4.726;2023-02-01T17:22:21;11.43;;;3.80;;
8803;SDS011;4438;50.890;4.726;2023-02-01T17:24:48;12.33;;;3.80;;